Time;durP1;ratioP1;P1;durP2;ratioP2;P2;SDS_P1;SDS_P2;PMS_P1;PMS_P2;Temp;Humidity;BMP_temperature;BMP_pressure;BME280_temperature;BME280_humidity;BME280_pressure;Samples;Min_cycle;Max_cycle;Signal;HPM_P1;HPM_P2
2021/08/09 00:01:14;;;;;;;;;;;;;;;21.55;70.06;100069.58;1453347;90;20252;-83
2021/08/09 00:03:40;;;;;;;;;;;;;;;21.58;69.80;100113.55;1464689;89;20454;-84
2021/08/09 00:06:06;;;;;;;;;;;;;;;21.52;70.67;100343.33;1457826;89;20827;-83
2021/08/09 00:08:32;;;;;;;;;;;;;;;21.62;71.69;100335.55;1449576;89;20560;-84
2021/08/09 00:27:27;;;;;;;6.65;3.33;;;;;;;21.66;77.16;100478.66;1469760;88;28594;-80
2021/08/09 00:29:54;;;;;;;11.05;3.98;;;;;;;21.18;78.60;100504.22;1454664;89;21486;-80
2021/08/09 00:32:20;;;;;;;9.10;2.87;;;;;;;20.78;82.63;100539.07;1465041;89;22505;-80
2021/08/09 00:34:46;;;;;;;16.27;3.45;;;;;;;20.63;79.70;100588.55;1462395;89;21507;-80
2021/08/09 00:37:12;;;;;;;9.48;3.67;;;;;;;20.50;79.54;100601.44;1458925;89;22336;-79
2021/08/09 00:39:38;;;;;;;8.38;3.12;;;;;;;20.33;82.87;100604.77;1459935;89;21715;-80
2021/08/09 00:42:05;;;;;;;3.77;1.85;;;;;;;20.12;84.42;100605.28;1463967;89;21663;-80
2021/08/09 00:44:31;;;;;;;16.77;2.90;;;;;;;19.98;87.67;100575.42;1468370;89;23265;-78
2021/08/09 00:46:57;;;;;;;9.85;3.20;;;;;;;19.88;86.53;100587.06;1460650;89;21555;-80
2021/08/09 00:49:24;;;;;;;5.17;2.50;;;;;;;19.82;86.24;100580.16;1460157;88;21523;-79
2021/08/09 00:51:51;;;;;;;7.23;3.10;;;;;;;19.71;87.18;100574.05;1454242;89;22276;-79
2021/08/09 00:54:19;;;;;;;8.60;2.97;;;;;;;19.64;89.96;100570.48;1455735;89;21649;-80
2021/08/09 00:56:45;;;;;;;5.83;2.80;;;;;;;19.60;88.14;100578.64;1458266;89;21498;-79
2021/08/09 00:59:12;;;;;;;6.50;2.67;;;;;;;19.54;89.69;100572.75;1464597;89;21522;-80
2021/08/09 01:01:38;;;;;;;8.27;2.90;;;;;;;19.52;88.71;100589.55;1458944;89;22469;-79
2021/08/09 01:04:05;;;;;;;6.97;3.67;;;;;;;19.50;89.06;100595.63;1464013;89;21427;-79
2021/08/09 01:06:31;;;;;;;7.10;3.10;;;;;;;19.49;87.38;100592.65;1467947;89;21644;-79
2021/08/09 01:09:26;;;;;;;5.77;2.77;;;;;;;19.49;88.40;100602.86;1445183;89;22401;-79
2021/08/09 01:12:01;;;;;;;5.20;2.60;;;;;;;19.49;88.75;100605.55;1462693;89;21626;-80
2021/08/09 01:36:18;;;;;;;6.75;3.12;;;;;;;20.16;89.08;100573.45;1490259;87;28881;-81
2021/08/09 01:38:46;;;;;;;8.38;2.72;;;;;;;20.03;88.56;100560.86;1469652;88;21455;-81
2021/08/09 01:41:13;;;;;;;7.62;3.55;;;;;;;20.00;88.56;100567.98;1474141;88;22438;-81
2021/08/09 01:43:39;;;;;;;4.30;2.35;;;;;;;19.97;88.06;100563.03;1471789;88;21478;-81
2021/08/09 01:46:07;;;;;;;3.20;2.52;;;;;;;19.95;87.46;100538.23;1478066;88;21494;-81
2021/08/09 01:48:34;;;;;;;5.47;3.17;;;;;;;19.93;87.21;100505.37;1472256;88;21492;-81
2021/08/09 01:51:00;;;;;;;3.02;2.37;;;;;;;19.91;87.52;100472.02;1475635;88;22581;-81
2021/08/09 01:53:27;;;;;;;5.12;2.60;;;;;;;19.92;87.03;100448.66;1477226;88;21441;-81
2021/08/09 01:55:53;;;;;;;4.60;2.65;;;;;;;19.88;87.72;100447.41;1477969;88;22306;-81
2021/08/09 01:58:20;;;;;;;5.78;2.98;;;;;;;19.79;88.01;100436.91;1474846;88;21471;-81
2021/08/09 02:00:46;;;;;;;5.62;2.60;;;;;;;19.77;86.98;100422.85;1479419;88;21522;-81
2021/08/09 02:03:12;;;;;;;8.28;3.52;;;;;;;19.74;87.92;100425.95;1474377;88;21463;-81
2021/08/09 02:05:38;;;;;;;7.43;3.10;;;;;;;19.72;86.69;100429.36;1481193;88;22351;-82
2021/08/09 02:08:06;;;;;;;3.87;2.90;;;;;;;19.76;86.98;100407.75;1470007;88;22379;-81
2021/08/09 02:10:32;;;;;;;4.37;2.57;;;;;;;19.76;87.37;100423.87;1471571;88;21529;-81
2021/08/09 02:13:13;;;;;;;6.77;3.00;;;;;;;19.69;88.79;100419.55;1480274;88;21557;-81
2021/08/09 02:16:06;;;;;;;6.43;2.83;;;;;;;19.67;87.84;100401.48;1472481;87;21471;-81
2021/08/09 02:19:06;;;;;;;3.90;3.10;;;;;;;19.72;87.80;100405.72;1472188;88;21544;-81
2021/08/09 02:21:36;;;;;;;4.10;2.80;;;;;;;19.73;86.96;100397.44;1483833;88;21389;-81
2021/08/09 02:24:08;;;;;;;8.33;3.33;;;;;;;19.75;89.17;100386.50;1482289;88;21515;-81
2021/08/09 02:26:45;;;;;;;5.40;2.63;;;;;;;19.72;88.58;100379.69;1411025;91;21590;-82
2021/08/09 02:29:29;;;;;;;4.97;3.10;;;;;;;19.71;88.61;100387.44;1430599;91;21643;-82
2021/08/09 02:31:58;;;;;;;8.13;3.40;;;;;;;19.62;88.81;100400.71;1437552;90;21472;-82
2021/08/09 02:34:28;;;;;;;7.83;3.10;;;;;;;19.58;88.46;100392.26;1435449;90;22367;-81
2021/08/09 02:36:55;;;;;;;5.55;3.15;;;;;;;19.62;88.01;100389.98;1422125;91;21568;-82
2021/08/09 02:39:22;;;;;;;4.70;2.77;;;;;;;19.64;88.76;100401.34;1431317;90;22418;-82
2021/08/09 02:41:48;;;;;;;3.93;2.87;;;;;;;19.66;88.25;100402.00;1436816;90;21677;-82
2021/08/09 02:44:15;;;;;;;5.67;3.03;;;;;;;19.71;88.07;100398.67;1438075;91;22625;-82
2021/08/09 02:46:42;;;;;;;5.57;3.00;;;;;;;19.70;88.42;100408.59;1430318;91;21523;-82
2021/08/09 02:49:12;;;;;;;6.10;3.27;;;;;;;19.73;87.79;100420.78;1426546;91;21538;-82
2021/08/09 02:51:39;;;;;;;10.65;3.40;;;;;;;19.72;87.56;100426.67;1429148;90;21472;-82
2021/08/09 02:54:05;;;;;;;4.57;3.47;;;;;;;19.76;87.80;100414.99;1429451;90;21464;-81
2021/08/09 02:56:33;;;;;;;6.63;3.63;;;;;;;19.77;87.58;100408.09;1423944;90;21517;-81
2021/08/09 02:59:00;;;;;;;5.33;3.10;;;;;;;19.74;87.68;100407.16;1435503;90;22292;-82
2021/08/09 03:01:30;;;;;;;4.60;3.77;;;;;;;19.68;87.45;100397.25;1433286;91;21708;-82
2021/08/09 03:03:59;;;;;;;6.45;3.37;;;;;;;19.64;86.96;100391.94;1442457;91;21508;-82
2021/08/09 03:06:27;;;;;;;5.30;3.33;;;;;;;19.61;87.48;100391.02;1426523;90;22388;-82
2021/08/09 03:08:55;;;;;;;3.87;2.77;;;;;;;19.55;88.60;100395.36;1431678;90;21524;-82
2021/08/09 03:11:22;;;;;;;10.17;3.83;;;;;;;19.54;88.39;100395.58;1430191;90;21493;-82
2021/08/09 03:13:51;;;;;;;7.37;3.73;;;;;;;19.52;88.82;100394.95;1427636;91;22454;-82
2021/08/09 03:16:17;;;;;;;6.10;2.97;;;;;;;19.47;88.42;100397.42;1434285;91;21642;-82
2021/08/09 03:18:43;;;;;;;7.07;3.43;;;;;;;19.42;88.37;100405.27;1419861;90;21471;-82
2021/08/09 03:21:10;;;;;;;7.40;3.50;;;;;;;19.38;88.62;100408.36;1431173;91;21792;-81
2021/08/09 03:23:36;;;;;;;4.70;3.67;;;;;;;19.35;88.93;100420.03;1428506;90;21487;-81
2021/08/09 03:26:03;;;;;;;6.93;3.53;;;;;;;19.38;89.75;100425.80;1435459;91;22490;-81
2021/08/09 03:28:29;;;;;;;6.20;3.37;;;;;;;19.36;89.08;100423.86;1430410;91;21531;-82
2021/08/09 03:30:56;;;;;;;9.00;3.83;;;;;;;19.32;88.69;100434.67;1423267;90;22336;-82
2021/08/09 03:33:22;;;;;;;10.33;4.20;;;;;;;19.30;89.01;100467.59;1433691;90;21434;-82
2021/08/09 03:35:48;;;;;;;4.53;3.50;;;;;;;19.28;88.80;100459.45;1437182;91;21625;-82
2021/08/09 03:38:14;;;;;;;7.17;3.17;;;;;;;19.21;90.12;100486.77;1428533;91;21515;-81
2021/08/09 03:40:40;;;;;;;9.00;3.77;;;;;;;19.15;88.95;100488.41;1439430;91;21471;-82
2021/08/09 03:43:06;;;;;;;6.07;3.87;;;;;;;19.15;88.86;100499.14;1436292;90;21546;-81
2021/08/09 03:45:33;;;;;;;8.00;3.97;;;;;;;19.14;89.06;100507.70;1435879;90;21427;-82
2021/08/09 03:47:59;;;;;;;4.10;3.30;;;;;;;19.13;89.11;100515.45;1433037;90;21456;-82
2021/08/09 03:50:25;;;;;;;5.30;3.83;;;;;;;19.10;88.71;100521.71;1436490;90;21567;-82
2021/08/09 03:52:55;;;;;;;3.50;3.00;;;;;;;19.10;88.83;100528.42;1438315;91;21501;-82
2021/08/09 03:55:22;;;;;;;7.70;3.70;;;;;;;19.07;89.00;100534.19;1443018;91;21530;-82
2021/08/09 03:57:48;;;;;;;5.03;3.40;;;;;;;18.98;89.14;100536.22;1438739;90;21456;-82
2021/08/09 04:00:15;;;;;;;11.73;4.47;;;;;;;18.94;88.94;100533.11;1443220;91;21478;-83
2021/08/09 04:02:41;;;;;;;9.97;3.90;;;;;;;18.89;89.16;100534.22;1433657;90;22402;-82
2021/08/09 04:05:09;;;;;;;6.77;3.93;;;;;;;18.90;88.69;100538.58;1431397;90;21628;-82
2021/08/09 04:07:38;;;;;;;5.63;3.87;;;;;;;18.89;88.88;100538.23;1440119;90;21494;-82
2021/08/09 04:10:07;;;;;;;5.73;3.27;;;;;;;18.90;89.74;100527.00;1429305;91;21524;-82
2021/08/09 04:12:34;;;;;;;5.80;4.00;;;;;;;18.88;89.48;100527.73;1442880;91;21574;-82
2021/08/09 04:15:00;;;;;;;6.33;4.20;;;;;;;18.87;89.09;100538.13;1441264;91;21798;-82
2021/08/09 04:17:26;;;;;;;10.80;4.30;;;;;;;18.88;89.07;100543.30;1434174;90;22476;-82
2021/08/09 04:19:53;;;;;;;4.97;3.30;;;;;;;18.89;89.86;100549.48;1439146;89;21627;-82
2021/08/09 04:22:19;;;;;;;8.60;4.10;;;;;;;18.89;89.68;100551.65;1440109;91;21435;-82
2021/08/09 04:24:45;;;;;;;10.23;5.33;;;;;;;18.82;89.86;100558.84;1435619;90;21465;-82
2021/08/09 04:27:11;;;;;;;6.67;4.10;;;;;;;18.88;89.39;100563.93;1432830;91;21413;-82
2021/08/09 04:29:37;;;;;;;5.13;3.70;;;;;;;18.81;89.93;100563.05;1448317;90;21448;-82
2021/08/09 04:32:15;;;;;;;7.60;3.93;;;;;;;18.83;89.46;100568.53;1432471;91;21523;-82
2021/08/09 04:34:42;;;;;;;5.03;3.80;;;;;;;18.83;89.30;100568.53;1438765;91;21390;-82
2021/08/09 04:37:08;;;;;;;10.23;3.80;;;;;;;18.83;89.32;100569.05;1437500;90;22396;-83
2021/08/09 04:39:35;;;;;;;9.50;3.50;;;;;;;18.82;89.16;100562.05;1433304;91;22359;-82
2021/08/09 04:42:01;;;;;;;7.87;4.27;;;;;;;18.78;89.22;100564.27;1437294;91;21612;-82
2021/08/09 04:44:28;;;;;;;6.97;4.27;;;;;;;18.77;89.67;100562.63;1443369;90;21614;-82
2021/08/09 04:46:55;;;;;;;9.50;4.37;;;;;;;18.76;89.53;100562.33;1428272;91;21607;-82
2021/08/09 04:49:21;;;;;;;7.63;4.60;;;;;;;18.76;89.48;100561.47;1440233;90;22464;-82
2021/08/09 04:51:47;;;;;;;10.27;4.57;;;;;;;18.75;89.64;100565.19;1437563;91;21428;-82
2021/08/09 04:54:13;;;;;;;6.77;4.30;;;;;;;18.78;89.32;100568.30;1439962;90;22420;-82
2021/08/09 04:56:40;;;;;;;10.83;4.10;;;;;;;18.78;89.55;100568.30;1426175;91;21457;-82
2021/08/09 04:59:06;;;;;;;9.07;4.33;;;;;;;18.81;89.47;100575.12;1437567;90;22390;-82
2021/08/09 05:01:31;;;;;;;9.07;4.40;;;;;;;18.86;89.93;100570.81;1431465;91;21568;-82
2021/08/09 05:03:58;;;;;;;5.40;4.03;;;;;;;18.94;89.14;100572.00;1446843;90;21532;-82
2021/08/09 05:06:24;;;;;;;10.10;5.07;;;;;;;19.06;89.15;100570.91;1438520;91;21509;-82
2021/08/09 05:08:50;;;;;;;6.27;3.97;;;;;;;19.13;89.15;100566.42;1446033;90;22405;-82
2021/08/09 05:11:16;;;;;;;7.23;4.73;;;;;;;19.27;89.01;100564.59;1436022;91;21390;-82
2021/08/09 05:13:42;;;;;;;7.85;4.85;;;;;;;19.41;88.92;100565.98;1442255;90;21503;-82
2021/08/09 05:16:08;;;;;;;9.58;3.52;;;;;;;19.45;88.65;100569.91;1431241;91;21486;-82
2021/08/09 05:18:34;;;;;;;16.37;5.70;;;;;;;19.48;87.93;100577.06;1447313;90;22323;-82
2021/08/09 05:21:00;;;;;;;10.80;4.70;;;;;;;19.53;87.73;100583.97;1438130;91;21487;-82
2021/08/09 05:23:27;;;;;;;7.30;4.40;;;;;;;19.51;87.69;100585.23;1438157;90;21571;-82
2021/08/09 05:25:53;;;;;;;8.35;4.17;;;;;;;19.51;87.15;100582.55;1413443;91;21619;-82
2021/08/09 05:28:19;;;;;;;11.83;4.12;;;;;;;19.51;87.25;100583.37;1431199;90;22479;-82
2021/08/09 05:30:48;;;;;;;7.65;4.33;;;;;;;19.55;87.40;100585.95;1425929;91;21544;-82
2021/08/09 05:33:15;;;;;;;7.72;5.10;;;;;;;19.64;87.88;100582.56;1436445;90;21429;-83
2021/08/09 05:35:41;;;;;;;7.17;3.87;;;;;;;19.69;87.25;100585.50;1429250;91;21619;-82
2021/08/09 05:38:10;;;;;;;8.98;4.25;;;;;;;19.70;86.92;100580.43;1435518;90;21420;-82
2021/08/09 05:40:37;;;;;;;6.97;4.50;;;;;;;19.79;86.92;100583.26;1428641;91;21657;-82
2021/08/09 05:43:04;;;;;;;7.65;3.98;;;;;;;19.76;86.21;100594.38;1435018;90;21598;-82
2021/08/09 05:45:30;;;;;;;10.15;4.28;;;;;;;19.74;85.81;100606.38;1427234;90;21531;-82
2021/08/09 05:47:56;;;;;;;5.58;3.80;;;;;;;19.76;86.14;100609.15;1424555;90;21545;-82
2021/08/09 05:50:23;;;;;;;7.92;4.78;;;;;;;19.80;86.57;100601.02;1430541;90;21597;-82
2021/08/09 05:52:51;;;;;;;12.53;4.15;;;;;;;19.82;86.10;100607.51;1431514;91;21532;-82
2021/08/09 05:55:17;;;;;;;7.25;4.30;;;;;;;19.92;86.06;100615.19;1416423;91;22410;-82
2021/08/09 05:57:43;;;;;;;8.18;4.25;;;;;;;19.98;85.99;100625.11;1422889;90;21765;-82
2021/08/09 06:00:10;;;;;;;5.35;4.30;;;;;;;19.99;85.38;100624.07;1432737;91;21483;-82
2021/08/09 06:02:41;;;;;;;6.17;4.28;;;;;;;20.12;85.28;100624.09;1423947;91;21428;-82
2021/08/09 06:05:09;;;;;;;8.25;4.50;;;;;;;20.19;84.50;100616.84;1435638;90;22403;-82
2021/08/09 06:07:37;;;;;;;6.33;4.37;;;;;;;20.26;84.02;100615.01;1412336;91;22440;-81
2021/08/09 06:10:04;;;;;;;9.53;4.33;;;;;;;20.33;83.99;100612.83;1434911;90;21693;-82
2021/08/09 06:12:31;;;;;;;7.17;4.20;;;;;;;20.34;82.96;100599.20;1431717;91;21712;-82
2021/08/09 06:14:57;;;;;;;8.05;4.33;;;;;;;20.34;82.88;100600.55;1434171;91;22293;-82
2021/08/09 06:17:23;;;;;;;8.78;4.67;;;;;;;20.50;83.13;100608.16;1437558;91;21480;-82
2021/08/09 06:19:49;;;;;;;7.87;5.53;;;;;;;20.69;83.17;100613.77;1429954;91;22308;-82
2021/08/09 06:22:16;;;;;;;7.53;4.90;;;;;;;20.84;82.58;100613.01;1440146;91;21652;-82
2021/08/09 06:24:42;;;;;;;9.20;4.15;;;;;;;21.00;82.08;100605.51;1433590;90;21449;-82
2021/08/09 06:27:08;;;;;;;6.67;3.95;;;;;;;21.10;81.08;100608.07;1426745;90;22389;-82
2021/08/09 06:29:34;;;;;;;4.85;3.90;;;;;;;21.10;80.31;100613.45;1431676;90;21471;-82
2021/08/09 06:32:00;;;;;;;6.35;4.10;;;;;;;21.18;79.44;100615.91;1430629;91;22308;-82
2021/08/09 06:34:26;;;;;;;5.67;4.25;;;;;;;21.15;77.78;100612.83;1439809;91;21449;-82
2021/08/09 06:36:52;;;;;;;5.35;3.50;;;;;;;21.17;78.80;100610.20;1427047;91;21530;-82
2021/08/09 06:39:20;;;;;;;9.63;4.62;;;;;;;21.32;79.42;100618.03;1433882;90;21517;-82
2021/08/09 06:41:47;;;;;;;7.55;4.55;;;;;;;21.45;79.42;100620.39;1433403;90;21575;-82
2021/08/09 06:44:14;;;;;;;9.00;3.77;;;;;;;21.45;78.46;100625.77;1425664;90;21839;-82
2021/08/09 06:46:40;;;;;;;5.12;4.05;;;;;;;21.56;78.90;100630.48;1446424;90;22277;-82
2021/08/09 06:49:06;;;;;;;5.60;4.03;;;;;;;21.67;78.40;100639.76;1424634;91;21436;-83
2021/08/09 06:51:33;;;;;;;5.80;4.35;;;;;;;21.77;78.16;100636.87;1434101;90;21389;-83
2021/08/09 06:53:59;;;;;;;11.85;3.60;;;;;;;21.95;77.90;100634.82;1427219;91;21568;-82
2021/08/09 06:56:25;;;;;;;7.75;4.17;;;;;;;22.08;77.14;100630.67;1423933;91;22329;-82
2021/08/09 06:58:51;;;;;;;8.90;3.40;;;;;;;22.14;76.52;100629.50;1437007;91;21667;-83
2021/08/09 07:01:18;;;;;;;11.43;4.17;;;;;;;22.16;76.34;100632.81;1430284;91;22344;-82
2021/08/09 07:03:46;;;;;;;7.50;3.92;;;;;;;22.31;75.97;100621.20;1430920;91;21419;-83
2021/08/09 07:06:21;;;;;;;7.25;4.12;;;;;;;22.45;75.83;100615.17;1433308;90;21545;-82
2021/08/09 07:08:52;;;;;;;9.03;5.12;;;;;;;22.63;75.93;100600.36;1422659;91;21590;-83
2021/08/09 07:11:19;;;;;;;7.03;4.45;;;;;;;22.73;74.83;100602.57;1435876;91;22595;-83
2021/08/09 07:13:46;;;;;;;5.15;3.67;;;;;;;22.82;74.33;100603.92;1425025;91;21450;-83
2021/08/09 07:16:12;;;;;;;5.47;3.90;;;;;;;22.78;73.46;100603.23;1435821;90;22403;-83
2021/08/09 07:18:38;;;;;;;4.80;3.75;;;;;;;22.84;73.45;100600.45;1426237;91;21479;-83
2021/08/09 07:21:12;;;;;;;5.00;3.30;;;;;;;22.75;72.18;100604.50;1428447;91;22367;-83
2021/08/09 07:23:39;;;;;;;6.37;3.72;;;;;;;22.62;70.98;100603.30;1436166;90;21501;-83
2021/08/09 07:26:05;;;;;;;6.30;3.70;;;;;;;22.62;72.71;100619.48;1439492;91;22374;-83
2021/08/09 07:28:33;;;;;;;4.85;3.45;;;;;;;22.61;72.81;100620.52;1422370;90;21487;-83
2021/08/09 07:30:59;;;;;;;4.45;3.15;;;;;;;22.76;72.96;100612.91;1441884;90;21486;-83
2021/08/09 07:33:26;;;;;;;5.20;3.25;;;;;;;22.92;72.87;100615.00;1430535;91;21516;-83
2021/08/09 07:35:53;;;;;;;9.10;3.10;;;;;;;23.01;72.40;100624.19;1430771;91;21486;-83
2021/08/09 07:38:19;;;;;;;8.53;2.40;;;;;;;22.90;71.28;100626.56;1412820;90;21598;-83
2021/08/09 07:40:46;;;;;;;7.35;2.83;;;;;;;22.94;71.15;100626.94;1408303;92;21490;-83
2021/08/09 07:43:12;;;;;;;4.65;3.40;;;;;;;23.11;71.77;100627.20;1409053;91;21495;-82
2021/08/09 07:45:39;;;;;;;6.17;2.80;;;;;;;23.20;68.70;100624.48;1408907;92;21732;-83
2021/08/09 07:48:06;;;;;;;4.37;2.80;;;;;;;23.37;70.57;100629.57;1416978;92;21406;-83
2021/08/09 07:50:32;;;;;;;6.40;2.45;;;;;;;23.49;69.71;100623.41;1418367;92;21659;-83
2021/08/09 07:52:58;;;;;;;10.15;2.58;;;;;;;23.64;69.46;100626.51;1407621;92;21653;-83
2021/08/09 07:55:25;;;;;;;5.85;2.58;;;;;;;23.72;70.08;100627.58;1416761;92;21592;-83
2021/08/09 07:57:52;;;;;;;4.35;2.10;;;;;;;23.88;70.21;100631.52;1409973;92;21650;-83
2021/08/09 08:00:19;;;;;;;2.58;1.90;;;;;;;24.03;68.93;100628.38;1415794;92;21578;-82
2021/08/09 08:02:45;;;;;;;4.90;1.90;;;;;;;24.07;68.23;100632.26;1417270;92;21473;-83
2021/08/09 08:05:12;;;;;;;8.55;2.98;;;;;;;24.16;68.05;100634.91;1409508;92;23456;-83
2021/08/09 08:07:38;;;;;;;2.00;1.80;;;;;;;24.08;67.26;100645.56;1406134;92;21392;-83
2021/08/09 08:10:05;;;;;;;2.90;1.98;;;;;;;24.12;66.66;100647.27;1412929;92;21555;-82
2021/08/09 08:12:31;;;;;;;2.75;1.40;;;;;;;24.05;65.97;100649.23;1419890;92;21525;-83
2021/08/09 08:14:57;;;;;;;2.62;1.80;;;;;;;23.98;66.30;100652.58;1411450;92;21573;-83
2021/08/09 08:17:24;;;;;;;1.67;1.30;;;;;;;23.84;66.62;100655.45;1408451;92;21444;-83
2021/08/09 08:19:51;;;;;;;4.72;2.35;;;;;;;23.96;67.11;100654.67;1414262;92;21571;-83
2021/08/09 08:22:17;;;;;;;2.75;1.50;;;;;;;23.87;65.80;100659.05;1410735;92;21488;-83
2021/08/09 08:24:44;;;;;;;3.60;1.80;;;;;;;24.04;66.37;100653.00;1414278;92;21531;-83
2021/08/09 08:27:12;;;;;;;3.17;1.32;;;;;;;24.14;65.71;100662.73;1420316;92;21719;-83
2021/08/09 08:29:38;;;;;;;4.53;1.32;;;;;;;24.11;65.44;100659.14;1420520;92;21595;-83
2021/08/09 08:32:06;;;;;;;3.12;1.40;;;;;;;24.17;65.50;100656.86;1391912;92;21540;-83
2021/08/09 08:34:32;;;;;;;2.67;1.22;;;;;;;24.32;66.16;100658.59;1412260;92;22345;-82
2021/08/09 08:36:58;;;;;;;3.50;1.20;;;;;;;24.34;65.75;100652.96;1416181;91;21664;-83
2021/08/09 08:39:25;;;;;;;5.67;2.02;;;;;;;24.51;65.52;100649.05;1424637;90;21412;-83
2021/08/09 08:41:52;;;;;;;4.72;1.47;;;;;;;24.63;65.04;100651.25;1429892;91;21487;-83
2021/08/09 08:44:20;;;;;;;2.08;1.72;;;;;;;24.86;65.37;100650.92;1442847;91;21539;-82
2021/08/09 08:46:48;;;;;;;2.52;1.02;;;;;;;25.03;64.69;100650.52;1412320;91;22555;-83
2021/08/09 08:49:15;;;;;;;2.58;1.22;;;;;;;25.18;64.70;100650.86;1437880;90;21545;-83
2021/08/09 08:51:45;;;;;;;3.30;1.75;;;;;;;25.33;63.53;100653.59;1434848;91;21538;-82
2021/08/09 08:54:12;;;;;;;2.50;1.73;;;;;;;25.17;61.88;100649.73;1433505;91;21493;-82
2021/08/09 08:56:41;;;;;;;6.08;1.95;;;;;;;25.27;61.98;100649.14;1434314;90;21493;-82
2021/08/09 08:59:11;;;;;;;2.52;1.62;;;;;;;25.36;62.19;100648.52;1434868;91;21515;-82
2021/08/09 09:01:39;;;;;;;7.35;1.35;;;;;;;25.49;61.22;100649.30;1428268;91;21568;-82
2021/08/09 09:04:27;;;;;;;4.92;1.27;;;;;;;25.55;59.96;100653.23;1427322;90;21420;-82
2021/08/09 09:07:05;;;;;;;3.92;1.45;;;;;;;25.58;61.41;100651.40;1433031;90;21550;-83
2021/08/09 09:09:38;;;;;;;4.15;1.27;;;;;;;25.79;60.96;100653.14;1441493;90;22349;-82
2021/08/09 09:12:16;;;;;;;4.97;1.27;;;;;;;25.79;60.81;100650.42;1429069;91;21515;-83
2021/08/09 09:14:43;;;;;;;3.15;1.60;;;;;;;25.90;60.71;100655.00;1431870;91;21545;-83
2021/08/09 09:17:09;;;;;;;3.40;1.55;;;;;;;25.91;60.63;100653.92;1433803;91;21510;-83
2021/08/09 09:19:43;;;;;;;4.62;1.60;;;;;;;26.04;60.56;100650.92;1422286;90;21471;-82
2021/08/09 09:22:22;;;;;;;1.62;1.27;;;;;;;26.17;59.09;100657.09;1431117;91;21562;-82
2021/08/09 09:24:52;;;;;;;3.02;1.40;;;;;;;26.25;60.13;100652.08;1422163;90;21701;-83
2021/08/09 09:27:29;;;;;;;;;;;;;;;26.33;58.97;100650.86;1444011;90;21471;-87
2021/08/09 09:29:57;;;;;;;1.90;1.17;;;;;;;26.40;58.91;100657.47;1439650;90;20306;-87
2021/08/09 09:32:25;;;;;;;3.80;1.67;;;;;;;26.42;58.73;100662.12;1409478;91;22425;-87
2021/08/09 09:34:55;;;;;;;3.40;1.47;;;;;;;26.42;57.69;100664.83;1432051;90;21434;-87
2021/08/09 09:37:25;;;;;;;5.83;1.77;;;;;;;26.54;58.88;100650.66;1431246;91;22462;-87
2021/08/09 09:39:53;;;;;;;3.92;1.70;;;;;;;26.59;58.58;100648.04;1428234;91;22425;-87
2021/08/09 09:42:19;;;;;;;5.65;1.95;;;;;;;26.55;58.28;100649.05;1435255;90;21479;-87
2021/08/09 09:44:45;;;;;;;5.37;1.20;;;;;;;26.61;59.55;100650.48;1398111;91;21906;-87
2021/08/09 09:47:30;;;;;;;3.37;1.65;;;;;;;26.68;59.53;100647.08;1437592;90;22040;-87
2021/08/09 09:49:59;;;;;;;6.78;1.80;;;;;;;26.80;59.02;100647.80;1429788;91;21486;-87
2021/08/09 09:52:47;;;;;;;2.60;1.77;;;;;;;27.08;58.21;100657.69;1410685;91;21464;-87
2021/08/09 09:55:15;;;;;;;5.65;1.52;;;;;;;27.27;57.69;100645.98;1432048;90;21648;-87
2021/08/09 09:57:44;;;;;;;2.62;1.42;;;;;;;27.37;57.27;100652.91;1425971;91;21508;-88
2021/08/09 10:00:18;;;;;;;4.37;1.90;;;;;;;27.38;57.33;100651.83;1430014;91;21621;-88
2021/08/09 10:02:47;;;;;;;4.40;1.82;;;;;;;27.47;57.33;100652.75;1441680;91;21530;-87
2021/08/09 10:05:15;;;;;;;5.83;1.92;;;;;;;27.53;56.66;100653.08;1431063;91;22550;-88
2021/08/09 10:07:46;;;;;;;2.65;1.60;;;;;;;27.58;56.89;100655.87;1429738;91;21486;-87
2021/08/09 10:10:14;;;;;;;5.58;1.55;;;;;;;27.64;55.68;100657.56;1439405;90;21633;-87
2021/08/09 10:12:43;;;;;;;3.27;1.80;;;;;;;27.81;56.08;100654.78;1429751;91;21494;-88
2021/08/09 10:15:10;;;;;;;2.33;1.70;;;;;;;27.84;54.58;100655.08;1432794;90;21723;-88
2021/08/09 10:17:37;;;;;;;1.80;1.50;;;;;;;27.92;55.11;100651.09;1435037;90;21494;-87
2021/08/09 10:20:09;;;;;;;3.25;1.55;;;;;;;27.98;54.32;100651.95;1425632;91;22444;-88
2021/08/09 10:22:37;;;;;;;2.35;1.80;;;;;;;28.04;53.72;100653.64;1432181;91;21464;-88
2021/08/09 10:25:05;;;;;;;1.70;1.45;;;;;;;27.94;55.01;100648.09;1429623;90;22498;-88
2021/08/09 10:27:51;;;;;;;1.90;1.32;;;;;;;28.06;55.22;100648.77;1429440;91;21582;-88
2021/08/09 10:30:23;;;;;;;4.85;1.47;;;;;;;28.19;54.08;100650.23;1434993;90;21450;-88
2021/08/09 10:32:55;;;;;;;2.87;1.55;;;;;;;28.26;54.62;100652.21;1427036;90;22293;-88
2021/08/09 10:35:50;;;;;;;2.37;1.50;;;;;;;28.37;54.38;100649.00;1424797;91;21627;-88
2021/08/09 10:38:28;;;;;;;3.50;1.60;;;;;;;28.44;51.74;100652.38;1429171;91;21702;-88
2021/08/09 10:41:09;;;;;;;4.53;1.92;;;;;;;28.55;53.83;100655.45;1439351;91;22329;-88
2021/08/09 10:43:40;;;;;;;5.85;1.98;;;;;;;28.67;53.25;100658.80;1437393;91;22444;-87
2021/08/09 10:46:40;;;;;;;2.95;1.95;;;;;;;28.53;50.83;100660.33;1431483;91;22254;-87
2021/08/09 10:49:09;;;;;;;2.17;1.40;;;;;;;28.57;51.93;100656.02;1427131;91;21620;-88
2021/08/09 10:51:56;;;;;;;1.98;1.75;;;;;;;28.29;51.54;100664.75;1434375;90;21375;-88
2021/08/09 10:54:31;;;;;;;3.98;1.87;;;;;;;28.30;49.92;100660.94;1433008;91;21568;-88
2021/08/09 10:57:00;;;;;;;3.83;1.57;;;;;;;28.27;51.24;100660.09;1434045;91;21479;-87
2021/08/09 10:59:48;;;;;;;2.72;1.65;;;;;;;28.34;51.78;100662.62;1432051;90;21687;-87
2021/08/09 11:02:18;;;;;;;2.75;2.10;;;;;;;28.50;52.50;100667.11;1434647;91;21514;-88
2021/08/09 11:05:13;;;;;;;2.77;1.30;;;;;;;28.62;51.23;100669.64;1427681;91;21427;-87
2021/08/09 11:07:40;;;;;;;2.85;2.08;;;;;;;28.59;51.51;100663.36;1441924;90;21427;-88
2021/08/09 11:10:08;;;;;;;2.17;1.35;;;;;;;28.66;51.76;100666.70;1427823;91;22500;-88
2021/08/09 11:12:55;;;;;;;3.67;1.77;;;;;;;28.48;51.77;100667.09;1426844;90;23701;-88
2021/08/09 11:15:21;;;;;;;3.47;1.70;;;;;;;28.52;52.80;100665.50;1414104;91;22484;-88
2021/08/09 11:17:50;;;;;;;2.58;1.70;;;;;;;28.71;52.50;100667.25;1437005;91;21457;-88
2021/08/09 11:20:33;;;;;;;3.10;1.62;;;;;;;28.74;52.51;100663.48;1436850;90;21421;-88
2021/08/09 11:23:04;;;;;;;4.95;1.90;;;;;;;28.91;51.80;100662.47;1425902;90;22447;-88
2021/08/09 11:25:47;;;;;;;3.20;2.05;;;;;;;28.86;51.39;100661.07;1432939;90;21715;-88
2021/08/09 11:28:21;;;;;;;2.35;1.95;;;;;;;29.05;52.48;100663.67;1430745;91;21524;-88
2021/08/09 11:30:51;;;;;;;4.92;1.75;;;;;;;29.16;50.86;100664.55;1410025;91;22418;-88
2021/08/09 11:33:40;;;;;;;3.35;1.75;;;;;;;29.13;50.45;100671.34;1430410;91;21420;-88
2021/08/09 11:36:11;;;;;;;6.85;1.50;;;;;;;29.28;50.47;100671.13;1442822;90;21471;-88
2021/08/09 11:38:51;;;;;;;3.47;1.87;;;;;;;29.24;50.61;100667.58;1432647;91;21427;-88
2021/08/09 11:41:26;;;;;;;5.40;1.72;;;;;;;29.33;50.57;100668.44;1435033;91;21472;-88
2021/08/09 11:44:08;;;;;;;2.10;1.72;;;;;;;29.45;50.20;100669.02;1445920;89;22313;-88
2021/08/09 11:46:49;;;;;;;5.65;1.90;;;;;;;29.50;50.30;100668.23;1426328;91;22461;-88
2021/08/09 11:49:17;;;;;;;4.42;1.45;;;;;;;29.57;50.80;100664.14;1421002;91;21427;-88
2021/08/09 11:51:45;;;;;;;2.72;1.80;;;;;;;29.60;50.54;100657.34;1453034;90;21597;-88
2021/08/09 11:54:11;;;;;;;3.02;2.30;;;;;;;29.63;49.89;100660.37;1439787;91;21641;-88
2021/08/09 11:56:39;;;;;;;2.60;1.47;;;;;;;29.75;50.60;100653.33;1400977;91;21472;-88
2021/08/09 11:59:17;;;;;;;3.00;1.98;;;;;;;29.78;49.95;100654.67;1442075;89;23044;-88
2021/08/09 12:01:46;;;;;;;6.00;1.98;;;;;;;29.81;49.63;100652.25;1434204;91;22410;-88
2021/08/09 12:04:21;;;;;;;5.22;1.67;;;;;;;29.84;49.07;100650.89;1431249;90;22503;-88
2021/08/09 12:06:58;;;;;;;4.37;1.72;;;;;;;29.89;49.18;100651.72;1418680;91;21500;-88
2021/08/09 12:09:41;;;;;;;4.20;1.50;;;;;;;29.81;49.86;100648.70;1407102;91;21412;-87
2021/08/09 12:12:11;;;;;;;4.33;2.10;;;;;;;29.85;49.70;100645.15;1434574;91;21479;-88
2021/08/09 12:14:37;;;;;;;5.67;1.67;;;;;;;29.99;49.83;100652.27;1449803;90;22300;-88